Amlin, Ohio
Current Conditions -  °F | °C
As of 5:53 PM on Friday 31 Oct 2014 (Local Time) from KOSU Reporting Station
Light Rain Light Rain  
Wind Chill: 35°   Ceiling: 1300
Heat Index: 41°   Visibility: 10mi
Dew Point: 38°   Wind: 10mph
Humidity: 89%   Direction: 320°NW
Pressure: 29.88"   Gusts: NA
Location:  40.08°N, 83.18°W
Report Text: KOSU 312153Z 32009KT 10SM -RA BKN013 BKN019 OVC025 05/03 A2988 RMK AO2 SLP122 P0000 T00500033
Loading
Personal Weather Stations






























Interactive Weather Map
Tropical Storm Tracking
New forecast layout! Learn more

10-Day Weather Forecast

Advertisements
Track Severe Weather on mobile